createdAt,value
2022-08-17T00:00:42.758Z,18.40
2022-08-17T00:03:13.598Z,19.53
2022-08-17T00:16:13.774Z,22.60
2022-08-17T00:18:58.403Z,22.10
2022-08-17T00:22:32.142Z,23.63
2022-08-17T00:24:26.519Z,26.70
2022-08-17T00:26:55.176Z,28.63
2022-08-17T00:29:23.684Z,27.20
2022-08-17T00:31:52.092Z,27.70
2022-08-17T00:34:22.035Z,30.10
2022-08-17T00:36:50.426Z,25.07
2022-08-17T00:39:18.881Z,23.77
2022-08-17T00:41:47.737Z,24.90
2022-08-17T00:44:16.552Z,23.47
2022-08-17T00:46:47.941Z,23.13
2022-08-17T00:49:19.717Z,23.07
2022-08-17T00:51:54.581Z,22.07
2022-08-17T00:54:27.426Z,22.83
2022-08-17T00:57:00.035Z,22.90
2022-08-17T00:59:32.530Z,26.07
2022-08-17T01:02:02.565Z,26.37
2022-08-17T01:04:33.110Z,26.13
2022-08-17T01:07:04.770Z,22.90
2022-08-17T01:09:34.952Z,20.40
2022-08-17T01:12:03.509Z,22.17
2022-08-17T01:14:32.846Z,22.43
2022-08-17T01:17:01.523Z,21.20
2022-08-17T01:19:34.371Z,22.60
2022-08-17T01:22:10.491Z,22.60
2022-08-17T01:24:45.730Z,22.63
2022-08-17T01:27:18.510Z,23.53
2022-08-17T01:29:52.350Z,22.20
2022-08-17T01:32:21.093Z,24.40
2022-08-17T01:34:50.900Z,22.00
2022-08-17T01:37:21.918Z,23.47
2022-08-17T01:39:57.938Z,24.53
2022-08-17T01:42:37.977Z,23.03
2022-08-17T01:45:10.030Z,24.17
2022-08-17T01:47:38.834Z,24.63
2022-08-17T01:50:15.879Z,27.53
2022-08-17T01:52:45.570Z,28.20
2022-08-17T01:55:18.915Z,28.93
2022-08-17T01:57:47.490Z,30.13
2022-08-17T02:00:16.684Z,30.07
2022-08-17T02:02:46.218Z,29.37
2022-08-17T02:05:15.212Z,29.40
2022-08-17T02:07:59.433Z,27.07
2022-08-17T02:10:33.837Z,24.53
2022-08-17T02:13:03.331Z,25.77
2022-08-17T02:15:32.373Z,26.67
2022-08-17T02:18:01.593Z,25.00
2022-08-17T02:20:41.262Z,25.30
2022-08-17T02:23:15.282Z,27.87
2022-08-17T02:25:48.961Z,28.73
2022-08-17T02:28:18.768Z,24.67
2022-08-17T02:31:00.335Z,24.00
2022-08-17T02:33:43.100Z,29.47
2022-08-17T02:36:13.371Z,25.70
2022-08-17T02:38:42.975Z,30.27
2022-08-17T02:41:13.227Z,31.00
2022-08-17T02:43:42.007Z,29.60
2022-08-17T02:46:12.818Z,29.40
2022-08-17T02:48:42.859Z,31.03
2022-08-17T02:51:11.448Z,28.67
2022-08-17T02:53:40.277Z,28.40
2022-08-17T02:56:08.704Z,28.33
2022-08-17T02:58:38.517Z,28.40
2022-08-17T03:01:09.721Z,28.23
2022-08-17T03:03:39.499Z,27.43
2022-08-17T03:06:08.797Z,25.57
2022-08-17T03:08:37.626Z,26.40
2022-08-17T03:11:06.486Z,26.33
2022-08-17T03:13:35.098Z,26.47
2022-08-17T03:16:05.430Z,25.60
2022-08-17T03:18:33.957Z,24.80
2022-08-17T03:21:04.793Z,24.40
2022-08-17T03:23:33.863Z,24.10
2022-08-17T03:26:02.292Z,25.40
2022-08-17T03:28:31.715Z,24.30
2022-08-17T03:31:00.249Z,23.57
2022-08-17T03:33:30.581Z,20.57
2022-08-17T03:35:59.567Z,21.50
2022-08-17T03:38:28.116Z,22.27
2022-08-17T03:40:59.751Z,21.87
2022-08-17T03:43:31.440Z,21.17
2022-08-17T03:46:33.842Z,20.47
2022-08-17T03:49:24.382Z,19.80
2022-08-17T03:52:10.989Z,20.63
2022-08-17T03:54:57.008Z,19.10
2022-08-17T03:57:26.384Z,19.07
2022-08-17T03:59:55.715Z,18.13
2022-08-17T04:02:28.165Z,19.13
2022-08-17T04:04:59.083Z,17.40
2022-08-17T04:07:30.084Z,16.10
2022-08-17T04:09:59.569Z,16.13
2022-08-17T04:12:31.087Z,18.27
2022-08-17T04:14:59.977Z,17.47
2022-08-17T04:17:30.444Z,19.33
2022-08-17T04:20:00.297Z,16.40
2022-08-17T04:22:30.558Z,16.37
2022-08-17T04:25:05.281Z,18.03
2022-08-17T04:27:33.915Z,15.40
2022-08-17T04:30:02.403Z,16.73
2022-08-17T04:33:05.448Z,17.37
2022-08-17T04:35:23.827Z,16.43
2022-08-17T04:37:52.555Z,18.07
2022-08-17T04:40:40.763Z,17.57
2022-08-17T04:43:12.908Z,17.33
2022-08-17T04:45:55.496Z,17.17
2022-08-17T04:48:29.703Z,15.77
2022-08-17T04:51:10.460Z,15.03
2022-08-17T04:53:40.717Z,16.10
2022-08-17T04:56:17.059Z,15.03
2022-08-17T04:58:50.341Z,12.53
2022-08-17T05:01:23.257Z,10.87
2022-08-17T05:03:53.757Z,11.30
2022-08-17T05:06:24.086Z,10.37
2022-08-17T05:08:52.604Z,8.63
2022-08-17T05:11:21.118Z,8.63
2022-08-17T05:13:50.885Z,8.70
2022-08-17T05:16:20.804Z,8.03
2022-08-17T05:18:49.683Z,7.97
2022-08-17T05:21:18.514Z,8.03
2022-08-17T05:23:53.942Z,8.17
2022-08-17T05:26:26.765Z,7.83
2022-08-17T05:29:00.475Z,8.00
2022-08-17T05:31:31.769Z,8.50
2022-08-17T05:34:00.498Z,8.23
2022-08-17T05:36:42.114Z,8.23
2022-08-17T05:39:15.709Z,10.03
2022-08-17T05:41:48.770Z,10.33
2022-08-17T05:44:18.042Z,10.23
2022-08-17T05:46:51.231Z,10.87
2022-08-17T05:49:25.733Z,12.13
2022-08-17T05:52:20.117Z,12.20
2022-08-17T05:55:04.789Z,12.23
2022-08-17T05:57:59.981Z,13.20
2022-08-17T06:00:33.127Z,12.77
2022-08-17T06:03:17.113Z,13.53
2022-08-17T06:05:56.125Z,14.20
2022-08-17T06:08:33.553Z,15.77
2022-08-17T06:11:12.945Z,15.97
2022-08-17T06:13:58.374Z,16.03
2022-08-17T06:16:34.110Z,15.87
2022-08-17T06:19:11.281Z,15.23
2022-08-17T06:21:43.651Z,16.30
2022-08-17T06:24:24.655Z,16.67
2022-08-17T06:26:56.993Z,17.83
2022-08-17T06:29:37.377Z,16.90
2022-08-17T06:32:08.954Z,18.23
2022-08-17T06:34:39.267Z,18.13
2022-08-17T06:37:21.370Z,18.47
2022-08-17T06:39:59.039Z,20.60
2022-08-17T06:43:06.840Z,23.00
2022-08-17T06:45:33.115Z,24.10
2022-08-17T06:48:08.384Z,23.90
2022-08-17T06:50:40.231Z,23.50
2022-08-17T06:53:20.633Z,23.90
2022-08-17T06:55:56.584Z,24.57
2022-08-17T06:58:29.577Z,26.80
2022-08-17T07:01:01.756Z,25.17
2022-08-17T07:03:38.162Z,26.63
2022-08-17T07:06:12.183Z,27.37
2022-08-17T07:08:50.487Z,28.33
2022-08-17T07:11:25.123Z,29.33
2022-08-17T07:14:04.831Z,30.20
2022-08-17T07:16:39.659Z,30.53
2022-08-17T07:19:10.933Z,30.00
2022-08-17T07:21:48.583Z,30.60
2022-08-17T07:24:37.393Z,32.73
2022-08-17T07:27:13.121Z,33.57
2022-08-17T07:29:46.786Z,32.57
2022-08-17T07:32:19.689Z,38.23
2022-08-17T07:35:10.740Z,37.40
2022-08-17T07:37:42.384Z,37.97
2022-08-17T07:40:25.072Z,37.80
2022-08-17T07:43:21.949Z,38.70
2022-08-17T07:46:17.405Z,40.07
2022-08-17T07:48:49.768Z,41.70
2022-08-17T07:51:25.392Z,42.00
2022-08-17T07:54:12.865Z,42.10
2022-08-17T07:56:46.019Z,39.50
2022-08-17T07:59:18.148Z,41.20
2022-08-17T08:02:08.191Z,40.40
2022-08-17T08:07:32.022Z,42.40
2022-08-17T08:10:08.735Z,42.03
2022-08-17T08:12:40.097Z,39.70
2022-08-17T08:15:18.974Z,41.50
2022-08-17T08:17:52.684Z,42.90
2022-08-17T08:20:52.348Z,40.70
2022-08-17T08:23:26.668Z,43.53
2022-08-17T08:26:08.260Z,41.27
2022-08-17T08:28:46.030Z,39.53
2022-08-17T08:31:42.091Z,37.93
2022-08-17T08:34:58.986Z,39.17
2022-08-17T08:37:22.817Z,35.10
2022-08-17T08:40:11.094Z,36.80
2022-08-17T08:42:51.001Z,37.63
2022-08-17T08:45:26.246Z,34.13
2022-08-17T08:48:23.168Z,36.67
2022-08-17T08:51:14.965Z,38.33
2022-08-17T08:53:53.508Z,38.13
2022-08-17T08:56:32.909Z,37.63
2022-08-17T08:59:23.744Z,37.87
2022-08-17T09:02:03.659Z,37.60
2022-08-17T09:05:12.786Z,39.13
2022-08-17T09:07:50.834Z,37.80
2022-08-17T09:10:29.559Z,39.33
2022-08-17T09:13:10.219Z,37.40
2022-08-17T09:15:43.795Z,39.03
2022-08-17T09:19:00.203Z,38.37
2022-08-17T09:21:12.626Z,39.20
2022-08-17T09:23:49.884Z,42.10
2022-08-17T09:26:23.262Z,41.97
2022-08-17T09:28:54.405Z,40.00
2022-08-17T09:31:48.191Z,41.77
2022-08-17T09:34:21.310Z,42.60
2022-08-17T09:37:12.604Z,43.13
2022-08-17T09:39:47.932Z,43.00
2022-08-17T09:42:24.907Z,43.37
2022-08-17T09:44:59.349Z,42.80
2022-08-17T09:47:33.885Z,42.63
2022-08-17T09:50:11.608Z,43.80
2022-08-17T09:52:40.441Z,44.17
2022-08-17T09:55:11.256Z,44.37
2022-08-17T09:57:53.656Z,45.20
2022-08-17T10:00:27.046Z,47.67
2022-08-17T10:03:19.981Z,47.27
2022-08-17T10:05:58.185Z,47.87
2022-08-17T10:08:36.381Z,50.40
2022-08-17T10:11:19.897Z,50.80
2022-08-17T10:13:59.515Z,48.80
2022-08-17T10:16:37.495Z,49.80
2022-08-17T10:19:17.351Z,51.67
2022-08-17T10:22:14.644Z,49.63
2022-08-17T10:25:22.564Z,52.40
2022-08-17T10:27:59.590Z,51.90
2022-08-17T10:30:32.345Z,51.63
2022-08-17T10:33:03.757Z,54.60
2022-08-17T10:35:39.638Z,51.97
2022-08-17T10:38:25.508Z,54.37
2022-08-17T10:41:02.335Z,53.70
2022-08-17T10:44:36.794Z,55.03
2022-08-17T10:46:54.361Z,54.87
2022-08-17T10:49:35.101Z,56.87
2022-08-17T10:52:09.146Z,58.10
2022-08-17T10:54:58.513Z,58.87
2022-08-17T10:57:42.572Z,58.63
2022-08-17T11:00:29.435Z,58.03
2022-08-17T11:03:00.305Z,57.37
2022-08-17T11:05:48.951Z,56.23
2022-08-17T11:08:45.823Z,58.83
2022-08-17T11:11:40.427Z,58.43
2022-08-17T11:14:24.988Z,59.80
2022-08-17T11:17:12.981Z,60.60
2022-08-17T11:20:04.886Z,62.23
2022-08-17T11:22:58.145Z,62.20
2022-08-17T11:25:35.240Z,62.80
2022-08-17T11:28:10.790Z,61.17
2022-08-17T11:30:49.420Z,64.43
2022-08-17T11:33:52.552Z,62.47
2022-08-17T11:36:34.521Z,60.73
2022-08-17T11:39:07.383Z,65.13
2022-08-17T11:41:49.729Z,70.50
2022-08-17T11:44:37.856Z,70.83
2022-08-17T11:47:30.319Z,72.30
2022-08-17T11:50:30.057Z,73.90
2022-08-17T11:53:00.492Z,70.70
2022-08-17T11:56:05.364Z,76.60
2022-08-17T11:58:40.638Z,75.30
2022-08-17T12:01:13.582Z,76.90
2022-08-17T12:03:55.606Z,77.03
2022-08-17T12:06:45.511Z,79.90
2022-08-17T12:09:20.175Z,81.03
2022-08-17T12:12:13.432Z,82.97
2022-08-17T12:17:41.299Z,85.30
2022-08-17T12:20:17.299Z,85.83
2022-08-17T12:22:55.011Z,88.03
2022-08-17T12:25:33.188Z,84.53
2022-08-17T12:28:06.872Z,87.53
2022-08-17T12:30:40.890Z,88.47
2022-08-17T12:33:25.679Z,89.63
2022-08-17T12:36:03.156Z,90.13
2022-08-17T12:38:34.810Z,90.27
2022-08-17T12:41:20.949Z,86.27
2022-08-17T12:44:02.386Z,81.17
2022-08-17T12:46:35.103Z,80.40
2022-08-17T12:49:23.032Z,79.37
2022-08-17T12:51:55.116Z,77.37
2022-08-17T12:54:40.708Z,78.20
2022-08-17T12:57:15.467Z,74.97
2022-08-17T12:59:47.507Z,74.37
2022-08-17T13:02:44.005Z,77.00
2022-08-17T13:05:25.324Z,75.20
2022-08-17T13:07:54.667Z,73.73
2022-08-17T13:10:32.249Z,72.00
2022-08-17T13:13:05.985Z,69.33
2022-08-17T13:15:44.705Z,65.70
2022-08-17T13:18:39.138Z,70.70
2022-08-17T13:21:13.231Z,67.00
2022-08-17T13:23:44.813Z,67.97
2022-08-17T13:26:29.454Z,71.77
2022-08-17T13:29:00.638Z,68.40
2022-08-17T13:31:42.918Z,66.83
2022-08-17T13:34:34.611Z,69.20
2022-08-17T13:37:36.214Z,71.77
2022-08-17T13:40:37.010Z,64.47
2022-08-17T13:43:05.917Z,66.80
2022-08-17T13:46:08.544Z,63.47
2022-08-17T13:48:37.750Z,62.93
2022-08-17T13:51:35.491Z,65.23
2022-08-17T13:54:24.459Z,63.97
2022-08-17T13:57:02.620Z,62.80
2022-08-17T13:59:55.215Z,63.07
2022-08-17T14:02:28.668Z,59.70
2022-08-17T14:04:58.502Z,61.60
2022-08-17T14:07:34.871Z,62.07
2022-08-17T14:10:09.404Z,59.07
2022-08-17T14:12:41.141Z,58.90
2022-08-17T14:15:22.310Z,58.90
2022-08-17T14:17:53.664Z,57.70
2022-08-17T14:20:24.726Z,56.63
2022-08-17T14:22:55.853Z,53.03
2022-08-17T14:25:27.587Z,55.90
2022-08-17T14:27:56.458Z,53.97
2022-08-17T14:30:29.109Z,50.03
2022-08-17T14:33:02.277Z,50.83
2022-08-17T14:35:30.802Z,49.20
2022-08-17T14:37:59.838Z,51.70
2022-08-17T14:40:28.361Z,49.57
2022-08-17T14:42:58.177Z,48.40
2022-08-17T14:45:31.695Z,50.67
2022-08-17T14:48:04.241Z,48.90
2022-08-17T14:50:35.362Z,49.80
2022-08-17T14:53:05.776Z,47.37
2022-08-17T14:55:35.226Z,48.20
2022-08-17T14:58:05.123Z,48.93
2022-08-17T15:00:33.727Z,46.80
2022-08-17T15:03:04.543Z,46.13
2022-08-17T15:05:35.420Z,48.53
2022-08-17T15:08:05.921Z,47.53
2022-08-17T15:10:34.866Z,45.67
2022-08-17T15:13:03.996Z,45.70
2022-08-17T15:15:32.780Z,45.33
2022-08-17T15:18:02.612Z,43.87
2022-08-17T15:20:33.558Z,42.20
2022-08-17T15:23:02.057Z,45.97
2022-08-17T15:25:33.292Z,43.17
2022-08-17T15:28:03.896Z,45.47
2022-08-17T15:30:32.677Z,45.00
2022-08-17T15:33:02.863Z,46.73
2022-08-17T15:35:34.872Z,44.30
2022-08-17T15:38:11.729Z,45.10
2022-08-17T15:40:49.942Z,43.53
2022-08-17T15:43:26.464Z,41.77
2022-08-17T15:46:00.633Z,39.57
2022-08-17T15:48:41.701Z,40.93
2022-08-17T15:51:16.432Z,34.60
2022-08-17T15:53:48.222Z,29.67
2022-08-17T15:56:21.259Z,30.90
2022-08-17T15:58:50.472Z,31.53
2022-08-17T16:02:14.259Z,34.53
2022-08-17T16:04:26.545Z,33.87
2022-08-17T16:07:01.067Z,24.57
2022-08-17T16:09:29.761Z,23.63
2022-08-17T16:11:58.407Z,25.07
2022-08-17T16:14:33.798Z,26.57
2022-08-17T16:17:03.829Z,24.93
2022-08-17T16:19:33.624Z,27.27
2022-08-17T16:22:04.200Z,25.50
2022-08-17T16:24:33.240Z,24.53
2022-08-17T16:27:01.972Z,25.67
2022-08-17T16:29:30.455Z,25.20
2022-08-17T16:31:59.406Z,29.13
2022-08-17T16:34:27.792Z,28.60
2022-08-17T16:36:56.818Z,25.20
2022-08-17T16:39:30.890Z,26.83
2022-08-17T16:42:00.387Z,23.50
2022-08-17T16:44:30.524Z,23.97
2022-08-17T16:47:00.058Z,23.93
2022-08-17T16:49:36.799Z,24.00
2022-08-17T16:52:10.385Z,23.60
2022-08-17T16:54:44.320Z,23.77
2022-08-17T16:57:14.173Z,25.23
2022-08-17T16:59:47.490Z,24.77
2022-08-17T17:02:17.906Z,25.67
2022-08-17T17:04:53.270Z,25.47
2022-08-17T17:07:38.943Z,24.80
2022-08-17T17:10:13.863Z,22.73
2022-08-17T17:13:02.745Z,22.93
2022-08-17T17:15:47.386Z,24.10
2022-08-17T17:18:17.927Z,26.17
2022-08-17T17:20:55.319Z,25.27
2022-08-17T17:23:36.229Z,26.73
2022-08-17T17:26:19.181Z,25.73
2022-08-17T17:29:00.943Z,27.73
2022-08-17T17:31:38.227Z,27.13
2022-08-17T17:34:11.568Z,27.33
2022-08-17T17:36:43.129Z,28.30
2022-08-17T17:39:16.753Z,28.20
2022-08-17T17:41:51.958Z,29.80
2022-08-17T17:44:25.585Z,31.43
2022-08-17T17:46:57.687Z,32.97
2022-08-17T17:49:29.951Z,31.97
2022-08-17T17:52:13.188Z,31.73
2022-08-17T17:54:55.289Z,33.37
2022-08-17T17:57:36.442Z,31.87
2022-08-17T18:00:12.546Z,32.33
2022-08-17T18:02:52.953Z,30.00
2022-08-17T18:05:44.675Z,29.90
2022-08-17T18:08:32.355Z,30.27
2022-08-17T18:11:24.564Z,30.47
2022-08-17T18:14:04.921Z,31.37
2022-08-17T18:16:34.275Z,34.10
2022-08-17T18:19:03.087Z,34.87
2022-08-17T18:21:48.513Z,34.63
2022-08-17T18:24:31.259Z,36.03
2022-08-17T18:27:02.857Z,36.57
2022-08-17T18:29:45.545Z,34.57
2022-08-17T18:32:35.673Z,36.50
2022-08-17T18:35:39.759Z,39.97
2022-08-17T18:38:24.251Z,38.63
2022-08-17T18:41:01.025Z,42.93
2022-08-17T18:43:43.775Z,43.60
2022-08-17T18:46:30.167Z,44.30
2022-08-17T18:49:04.900Z,46.20
2022-08-17T18:51:42.307Z,47.63
2022-08-17T18:54:21.373Z,43.43
2022-08-17T18:56:52.294Z,42.03
2022-08-17T18:59:29.061Z,40.03
2022-08-17T19:02:33.642Z,43.40
2022-08-17T19:05:11.862Z,49.30
2022-08-17T19:07:45.686Z,41.57
2022-08-17T19:10:25.284Z,44.33
2022-08-17T19:13:00.250Z,41.73
2022-08-17T19:15:36.194Z,42.47
2022-08-17T19:18:15.635Z,40.97
2022-08-17T19:20:49.029Z,37.53
2022-08-17T19:23:26.448Z,40.40
2022-08-17T19:25:58.641Z,39.73
2022-08-17T19:28:31.367Z,39.13
2022-08-17T19:31:08.434Z,39.77
2022-08-17T19:33:38.676Z,40.63
2022-08-17T19:36:11.200Z,41.90
2022-08-17T19:38:46.752Z,39.10
2022-08-17T19:41:23.844Z,41.87
2022-08-17T19:44:07.584Z,39.70
2022-08-17T19:46:50.106Z,38.73
2022-08-17T19:49:48.363Z,37.03
2022-08-17T19:52:41.766Z,39.07
2022-08-17T19:55:21.025Z,38.80
2022-08-17T19:58:03.510Z,41.20
2022-08-17T20:00:35.029Z,42.53
2022-08-17T20:03:14.587Z,43.10
2022-08-17T20:06:11.960Z,51.07
2022-08-17T20:08:49.948Z,43.70
2022-08-17T20:11:25.654Z,45.13
2022-08-17T20:14:01.920Z,43.53
2022-08-17T20:16:32.654Z,43.37
2022-08-17T20:19:05.120Z,41.23
2022-08-17T20:21:43.055Z,42.93
2022-08-17T20:24:22.032Z,40.17
2022-08-17T20:26:58.638Z,39.13
2022-08-17T20:29:39.987Z,39.20
2022-08-17T20:32:31.497Z,42.73
2022-08-17T20:35:11.312Z,42.57
2022-08-17T20:37:45.007Z,45.50
2022-08-17T20:40:26.017Z,42.20
2022-08-17T20:42:55.010Z,41.67
2022-08-17T20:46:09.002Z,75.67
2022-08-17T20:48:42.874Z,63.67
2022-08-17T20:51:26.127Z,62.17
2022-08-17T20:54:20.807Z,60.63
2022-08-17T20:56:57.421Z,58.33
2022-08-17T20:59:58.493Z,69.93
2022-08-17T21:02:29.756Z,64.30
2022-08-17T21:05:32.393Z,76.47
2022-08-17T21:08:15.859Z,64.43
2022-08-17T21:10:48.112Z,63.97
2022-08-17T21:13:59.419Z,72.03
2022-08-17T21:16:49.022Z,66.27
2022-08-17T21:19:44.444Z,60.60
2022-08-17T21:22:35.254Z,66.13
2022-08-17T21:25:17.174Z,62.27
2022-08-17T21:28:00.185Z,60.23
2022-08-17T21:30:50.397Z,54.03
2022-08-17T21:33:26.407Z,55.50
2022-08-17T21:36:11.905Z,52.03
2022-08-17T21:38:51.556Z,51.00
2022-08-17T21:41:27.553Z,51.67
2022-08-17T21:44:05.486Z,54.07
2022-08-17T21:46:38.663Z,59.10
2022-08-17T21:49:13.690Z,55.73
2022-08-17T21:51:46.718Z,55.23
2022-08-17T21:54:32.096Z,49.10
2022-08-17T21:57:03.721Z,54.73
2022-08-17T21:59:37.228Z,52.63
2022-08-17T22:02:10.966Z,49.37
2022-08-17T22:04:43.010Z,46.63
2022-08-17T22:07:13.671Z,56.67
2022-08-17T22:09:44.869Z,58.30
2022-08-17T22:12:17.251Z,53.07
2022-08-17T22:14:57.495Z,52.97
2022-08-17T22:17:28.789Z,54.97
2022-08-17T22:20:01.557Z,53.67
2022-08-17T22:22:59.142Z,59.43
2022-08-17T22:25:29.677Z,59.00
2022-08-17T22:28:00.974Z,58.73
2022-08-17T22:30:36.005Z,62.00
2022-08-17T22:33:36.637Z,63.73
2022-08-17T22:36:25.179Z,62.87
2022-08-17T22:38:56.038Z,55.03
2022-08-17T22:41:40.766Z,55.23
2022-08-17T22:44:24.393Z,47.23
2022-08-17T22:46:59.527Z,54.23
2022-08-17T22:49:33.014Z,56.83
2022-08-17T22:52:05.317Z,50.13
2022-08-17T22:54:51.691Z,51.07
2022-08-17T22:57:43.654Z,52.13
2022-08-17T23:00:32.215Z,50.57
2022-08-17T23:03:15.973Z,51.97
2022-08-17T23:05:47.555Z,45.73
2022-08-17T23:08:21.442Z,49.13
2022-08-17T23:10:50.564Z,47.67
2022-08-17T23:13:21.456Z,51.27
2022-08-17T23:15:52.390Z,51.87
2022-08-17T23:18:23.556Z,58.50
2022-08-17T23:20:52.107Z,58.80
2022-08-17T23:23:23.684Z,47.20
2022-08-17T23:25:52.539Z,48.43
2022-08-17T23:28:21.968Z,47.30
2022-08-17T23:30:50.469Z,48.00
2022-08-17T23:33:25.690Z,53.40
2022-08-17T23:35:55.051Z,58.30
2022-08-17T23:38:27.605Z,63.83
2022-08-17T23:41:00.256Z,72.13
2022-08-17T23:43:31.565Z,79.07
2022-08-17T23:46:03.729Z,73.30
2022-08-17T23:48:36.749Z,79.60
2022-08-17T23:51:09.845Z,80.33
2022-08-17T23:53:46.652Z,84.47
2022-08-17T23:56:15.497Z,86.37
2022-08-17T23:58:45.407Z,88.17
